sensor_id;sensor_type;location;lat;lon;timestamp;temperature;humidity
21508;DHT22;10915;54.352;9.074;2023-02-24T00:01:32;5.30;99.90
21508;DHT22;10915;54.352;9.074;2023-02-24T00:04:03;5.30;99.90
21508;DHT22;10915;54.352;9.074;2023-02-24T00:06:32;5.20;99.90
21508;DHT22;10915;54.352;9.074;2023-02-24T00:11:29;5.20;99.90
21508;DHT22;10915;54.352;9.074;2023-02-24T00:13:54;5.20;99.90
21508;DHT22;10915;54.352;9.074;2023-02-24T00:16:22;5.20;99.90
21508;DHT22;10915;54.352;9.074;2023-02-24T00:18:50;5.20;99.90
21508;DHT22;10915;54.352;9.074;2023-02-24T00:21:16;5.20;99.90
21508;DHT22;10915;54.352;9.074;2023-02-24T00:23:43;5.20;99.90
21508;DHT22;10915;54.352;9.074;2023-02-24T00:26:12;5.20;99.90
21508;DHT22;10915;54.352;9.074;2023-02-24T00:28:39;5.30;99.90
21508;DHT22;10915;54.352;9.074;2023-02-24T00:31:13;5.20;99.90
21508;DHT22;10915;54.352;9.074;2023-02-24T00:33:41;5.20;99.90
21508;DHT22;10915;54.352;9.074;2023-02-24T00:36:12;5.20;99.90
21508;DHT22;10915;54.352;9.074;2023-02-24T00:38:40;5.20;99.90
21508;DHT22;10915;54.352;9.074;2023-02-24T00:41:17;5.20;99.90
21508;DHT22;10915;54.352;9.074;2023-02-24T00:43:45;5.20;99.90
21508;DHT22;10915;54.352;9.074;2023-02-24T00:46:13;5.20;99.90
21508;DHT22;10915;54.352;9.074;2023-02-24T00:48:46;5.20;99.90
21508;DHT22;10915;54.352;9.074;2023-02-24T00:51:19;5.20;99.90
21508;DHT22;10915;54.352;9.074;2023-02-24T00:53:49;5.20;99.90
21508;DHT22;10915;54.352;9.074;2023-02-24T00:56:15;5.10;99.90
21508;DHT22;10915;54.352;9.074;2023-02-24T00:58:43;5.10;99.90
21508;DHT22;10915;54.352;9.074;2023-02-24T01:01:17;5.10;99.90
21508;DHT22;10915;54.352;9.074;2023-02-24T01:03:44;5.10;99.90
21508;DHT22;10915;54.352;9.074;2023-02-24T01:06:11;5.10;99.90
21508;DHT22;10915;54.352;9.074;2023-02-24T01:08:41;5.10;99.90
21508;DHT22;10915;54.352;9.074;2023-02-24T01:11:34;5.10;99.90
21508;DHT22;10915;54.352;9.074;2023-02-24T01:14:32;5.10;99.90
21508;DHT22;10915;54.352;9.074;2023-02-24T01:16:59;5.10;99.90
21508;DHT22;10915;54.352;9.074;2023-02-24T01:19:30;5.20;99.90
21508;DHT22;10915;54.352;9.074;2023-02-24T01:22:05;5.20;99.90
21508;DHT22;10915;54.352;9.074;2023-02-24T01:24:34;5.20;99.90
21508;DHT22;10915;54.352;9.074;2023-02-24T01:27:01;5.20;99.90
21508;DHT22;10915;54.352;9.074;2023-02-24T01:29:26;5.20;99.90
21508;DHT22;10915;54.352;9.074;2023-02-24T01:31:53;5.20;99.90
21508;DHT22;10915;54.352;9.074;2023-02-24T01:34:22;5.30;99.90
21508;DHT22;10915;54.352;9.074;2023-02-24T01:36:48;5.20;99.90
21508;DHT22;10915;54.352;9.074;2023-02-24T01:39:14;5.30;99.90
21508;DHT22;10915;54.352;9.074;2023-02-24T01:41:42;5.30;99.90
21508;DHT22;10915;54.352;9.074;2023-02-24T01:46:47;5.30;99.90
21508;DHT22;10915;54.352;9.074;2023-02-24T01:51:44;5.30;99.90
21508;DHT22;10915;54.352;9.074;2023-02-24T01:54:13;5.40;99.90
21508;DHT22;10915;54.352;9.074;2023-02-24T01:56:41;5.30;99.90
21508;DHT22;10915;54.352;9.074;2023-02-24T01:59:08;5.40;99.90
21508;DHT22;10915;54.352;9.074;2023-02-24T02:01:35;5.30;99.90
21508;DHT22;10915;54.352;9.074;2023-02-24T02:04:35;5.40;99.90
21508;DHT22;10915;54.352;9.074;2023-02-24T02:07:02;5.40;99.90
21508;DHT22;10915;54.352;9.074;2023-02-24T02:09:29;5.40;99.90
21508;DHT22;10915;54.352;9.074;2023-02-24T02:11:55;5.40;99.90
21508;DHT22;10915;54.352;9.074;2023-02-24T02:14:22;5.40;99.90
21508;DHT22;10915;54.352;9.074;2023-02-24T02:29:18;5.40;99.90
21508;DHT22;10915;54.352;9.074;2023-02-24T02:34:33;5.40;99.90
21508;DHT22;10915;54.352;9.074;2023-02-24T02:45:01;5.50;99.90
21508;DHT22;10915;54.352;9.074;2023-02-24T02:50:52;5.50;99.90
21508;DHT22;10915;54.352;9.074;2023-02-24T02:53:23;5.50;99.90
21508;DHT22;10915;54.352;9.074;2023-02-24T02:56:16;5.50;99.90
21508;DHT22;10915;54.352;9.074;2023-02-24T02:58:47;5.50;99.90
21508;DHT22;10915;54.352;9.074;2023-02-24T03:01:18;5.50;99.90
21508;DHT22;10915;54.352;9.074;2023-02-24T03:03:50;5.50;99.90
21508;DHT22;10915;54.352;9.074;2023-02-24T03:08:51;5.60;99.90
21508;DHT22;10915;54.352;9.074;2023-02-24T03:11:18;5.60;99.90
21508;DHT22;10915;54.352;9.074;2023-02-24T03:13:47;5.60;99.90
21508;DHT22;10915;54.352;9.074;2023-02-24T03:16:16;5.50;99.90
21508;DHT22;10915;54.352;9.074;2023-02-24T03:18:46;5.50;99.90
21508;DHT22;10915;54.352;9.074;2023-02-24T03:21:28;5.50;99.90
21508;DHT22;10915;54.352;9.074;2023-02-24T03:23:58;5.50;99.90
21508;DHT22;10915;54.352;9.074;2023-02-24T03:26:42;5.50;99.90
21508;DHT22;10915;54.352;9.074;2023-02-24T03:29:14;5.50;99.90
21508;DHT22;10915;54.352;9.074;2023-02-24T03:31:46;5.50;99.90
21508;DHT22;10915;54.352;9.074;2023-02-24T03:35:14;5.50;99.90
21508;DHT22;10915;54.352;9.074;2023-02-24T03:37:08;5.50;99.90
21508;DHT22;10915;54.352;9.074;2023-02-24T03:39:34;5.50;99.90
21508;DHT22;10915;54.352;9.074;2023-02-24T03:42:15;5.50;99.90
21508;DHT22;10915;54.352;9.074;2023-02-24T03:44:44;5.50;99.90
21508;DHT22;10915;54.352;9.074;2023-02-24T03:47:10;5.50;99.90
21508;DHT22;10915;54.352;9.074;2023-02-24T03:49:36;5.50;99.90
21508;DHT22;10915;54.352;9.074;2023-02-24T03:54:44;5.50;99.90
21508;DHT22;10915;54.352;9.074;2023-02-24T03:58:16;5.50;99.90
21508;DHT22;10915;54.352;9.074;2023-02-24T04:08:26;5.50;99.90
21508;DHT22;10915;54.352;9.074;2023-02-24T04:11:01;5.50;99.90
21508;DHT22;10915;54.352;9.074;2023-02-24T04:13:37;5.50;99.90
21508;DHT22;10915;54.352;9.074;2023-02-24T04:16:15;5.50;99.90
21508;DHT22;10915;54.352;9.074;2023-02-24T04:18:47;5.40;99.90
21508;DHT22;10915;54.352;9.074;2023-02-24T04:21:16;5.40;99.90
21508;DHT22;10915;54.352;9.074;2023-02-24T04:23:43;5.40;99.90
21508;DHT22;10915;54.352;9.074;2023-02-24T04:26:12;5.40;99.90
21508;DHT22;10915;54.352;9.074;2023-02-24T04:28:41;5.40;99.90
21508;DHT22;10915;54.352;9.074;2023-02-24T04:31:10;5.40;99.90
21508;DHT22;10915;54.352;9.074;2023-02-24T04:33:42;5.30;99.90
21508;DHT22;10915;54.352;9.074;2023-02-24T04:36:10;5.30;99.90
21508;DHT22;10915;54.352;9.074;2023-02-24T04:38:38;5.30;99.90
21508;DHT22;10915;54.352;9.074;2023-02-24T04:41:04;5.30;99.90
21508;DHT22;10915;54.352;9.074;2023-02-24T04:43:30;5.30;99.90
21508;DHT22;10915;54.352;9.074;2023-02-24T04:45:55;5.30;99.90
21508;DHT22;10915;54.352;9.074;2023-02-24T04:48:21;5.30;99.90
21508;DHT22;10915;54.352;9.074;2023-02-24T04:50:47;5.40;99.90
21508;DHT22;10915;54.352;9.074;2023-02-24T04:53:20;5.40;99.90
21508;DHT22;10915;54.352;9.074;2023-02-24T04:55:52;5.40;99.90
21508;DHT22;10915;54.352;9.074;2023-02-24T04:58:20;5.40;99.90
21508;DHT22;10915;54.352;9.074;2023-02-24T05:00:50;5.30;99.90
21508;DHT22;10915;54.352;9.074;2023-02-24T05:03:23;5.30;99.90
21508;DHT22;10915;54.352;9.074;2023-02-24T05:05:55;5.30;99.90
21508;DHT22;10915;54.352;9.074;2023-02-24T05:08:22;5.30;99.90
21508;DHT22;10915;54.352;9.074;2023-02-24T05:10:48;5.30;99.90
21508;DHT22;10915;54.352;9.074;2023-02-24T05:13:23;5.30;99.90
21508;DHT22;10915;54.352;9.074;2023-02-24T05:15:57;5.30;99.90
21508;DHT22;10915;54.352;9.074;2023-02-24T05:18:23;5.30;99.90
21508;DHT22;10915;54.352;9.074;2023-02-24T05:20:52;5.30;99.90
21508;DHT22;10915;54.352;9.074;2023-02-24T05:23:46;5.20;99.90
21508;DHT22;10915;54.352;9.074;2023-02-24T05:26:17;5.30;99.90
21508;DHT22;10915;54.352;9.074;2023-02-24T05:28:46;5.30;99.90
21508;DHT22;10915;54.352;9.074;2023-02-24T05:31:16;5.20;99.90
21508;DHT22;10915;54.352;9.074;2023-02-24T05:33:46;5.20;99.90
21508;DHT22;10915;54.352;9.074;2023-02-24T05:36:15;5.30;99.90
21508;DHT22;10915;54.352;9.074;2023-02-24T05:38:49;5.30;99.90
21508;DHT22;10915;54.352;9.074;2023-02-24T05:41:20;5.30;99.90
21508;DHT22;10915;54.352;9.074;2023-02-24T05:43:50;5.30;99.90
21508;DHT22;10915;54.352;9.074;2023-02-24T05:46:24;5.30;99.90
21508;DHT22;10915;54.352;9.074;2023-02-24T05:48:57;5.20;99.90
21508;DHT22;10915;54.352;9.074;2023-02-24T05:51:24;5.20;99.90
21508;DHT22;10915;54.352;9.074;2023-02-24T05:53:51;5.20;99.90
21508;DHT22;10915;54.352;9.074;2023-02-24T05:56:23;5.30;99.90
21508;DHT22;10915;54.352;9.074;2023-02-24T05:58:49;5.30;99.90
21508;DHT22;10915;54.352;9.074;2023-02-24T06:01:30;5.20;99.90
21508;DHT22;10915;54.352;9.074;2023-02-24T06:03:59;5.20;99.90
21508;DHT22;10915;54.352;9.074;2023-02-24T06:06:38;5.20;99.90
21508;DHT22;10915;54.352;9.074;2023-02-24T06:09:10;5.20;99.90
21508;DHT22;10915;54.352;9.074;2023-02-24T06:11:41;5.20;99.90
21508;DHT22;10915;54.352;9.074;2023-02-24T06:14:10;5.20;99.90
21508;DHT22;10915;54.352;9.074;2023-02-24T06:16:38;5.10;99.90
21508;DHT22;10915;54.352;9.074;2023-02-24T06:19:06;5.10;99.90
21508;DHT22;10915;54.352;9.074;2023-02-24T06:21:37;5.20;99.90
21508;DHT22;10915;54.352;9.074;2023-02-24T06:24:11;5.10;99.90
21508;DHT22;10915;54.352;9.074;2023-02-24T06:26:40;5.10;99.90
21508;DHT22;10915;54.352;9.074;2023-02-24T06:29:11;5.10;99.90
21508;DHT22;10915;54.352;9.074;2023-02-24T06:31:37;5.10;99.90
21508;DHT22;10915;54.352;9.074;2023-02-24T06:34:03;5.10;99.90
21508;DHT22;10915;54.352;9.074;2023-02-24T06:36:29;5.10;99.90
21508;DHT22;10915;54.352;9.074;2023-02-24T06:38:54;5.10;99.90
21508;DHT22;10915;54.352;9.074;2023-02-24T06:41:20;5.10;99.90
21508;DHT22;10915;54.352;9.074;2023-02-24T06:43:47;5.20;99.90
21508;DHT22;10915;54.352;9.074;2023-02-24T06:46:14;5.10;99.90
21508;DHT22;10915;54.352;9.074;2023-02-24T06:48:41;5.10;99.90
21508;DHT22;10915;54.352;9.074;2023-02-24T06:51:15;5.10;99.90
21508;DHT22;10915;54.352;9.074;2023-02-24T06:53:44;5.10;99.90
21508;DHT22;10915;54.352;9.074;2023-02-24T06:56:15;5.00;99.90
21508;DHT22;10915;54.352;9.074;2023-02-24T06:58:48;5.00;99.90
21508;DHT22;10915;54.352;9.074;2023-02-24T07:01:20;5.10;99.90
21508;DHT22;10915;54.352;9.074;2023-02-24T07:03:54;5.10;99.90
21508;DHT22;10915;54.352;9.074;2023-02-24T07:06:34;5.10;99.90
21508;DHT22;10915;54.352;9.074;2023-02-24T07:09:06;5.10;99.90
21508;DHT22;10915;54.352;9.074;2023-02-24T07:11:34;5.10;99.90
21508;DHT22;10915;54.352;9.074;2023-02-24T07:14:00;5.10;99.90
21508;DHT22;10915;54.352;9.074;2023-02-24T07:16:26;5.20;99.90
21508;DHT22;10915;54.352;9.074;2023-02-24T07:18:57;5.20;99.90
21508;DHT22;10915;54.352;9.074;2023-02-24T07:21:25;5.20;99.90
21508;DHT22;10915;54.352;9.074;2023-02-24T07:23:51;5.30;99.90
21508;DHT22;10915;54.352;9.074;2023-02-24T07:26:25;5.30;99.90
21508;DHT22;10915;54.352;9.074;2023-02-24T07:28:51;5.30;99.90
21508;DHT22;10915;54.352;9.074;2023-02-24T07:31:21;5.40;99.90
21508;DHT22;10915;54.352;9.074;2023-02-24T07:33:48;5.40;99.90
21508;DHT22;10915;54.352;9.074;2023-02-24T07:36:17;5.50;99.90
21508;DHT22;10915;54.352;9.074;2023-02-24T07:38:51;5.40;99.90
21508;DHT22;10915;54.352;9.074;2023-02-24T07:41:19;5.50;99.90
21508;DHT22;10915;54.352;9.074;2023-02-24T07:43:51;5.50;99.90
21508;DHT22;10915;54.352;9.074;2023-02-24T07:46:26;5.60;99.90
21508;DHT22;10915;54.352;9.074;2023-02-24T07:48:58;5.60;99.90
21508;DHT22;10915;54.352;9.074;2023-02-24T07:51:25;5.70;99.90
21508;DHT22;10915;54.352;9.074;2023-02-24T07:53:58;5.70;99.90
21508;DHT22;10915;54.352;9.074;2023-02-24T07:56:26;5.80;99.90
21508;DHT22;10915;54.352;9.074;2023-02-24T07:59:04;5.80;99.90
21508;DHT22;10915;54.352;9.074;2023-02-24T08:01:34;5.90;99.90
21508;DHT22;10915;54.352;9.074;2023-02-24T08:04:18;5.90;99.90
21508;DHT22;10915;54.352;9.074;2023-02-24T08:06:45;6.00;99.90
21508;DHT22;10915;54.352;9.074;2023-02-24T08:09:19;6.10;99.90
21508;DHT22;10915;54.352;9.074;2023-02-24T08:11:53;6.10;99.90
21508;DHT22;10915;54.352;9.074;2023-02-24T08:14:20;6.20;99.90
21508;DHT22;10915;54.352;9.074;2023-02-24T08:16:51;6.30;99.90
21508;DHT22;10915;54.352;9.074;2023-02-24T08:19:19;6.40;99.90
21508;DHT22;10915;54.352;9.074;2023-02-24T08:21:52;6.50;99.90
21508;DHT22;10915;54.352;9.074;2023-02-24T08:24:24;6.50;99.90
21508;DHT22;10915;54.352;9.074;2023-02-24T08:26:55;6.60;99.90
21508;DHT22;10915;54.352;9.074;2023-02-24T08:29:32;6.70;99.90
21508;DHT22;10915;54.352;9.074;2023-02-24T08:32:05;6.90;99.90
21508;DHT22;10915;54.352;9.074;2023-02-24T08:34:34;7.10;99.90
21508;DHT22;10915;54.352;9.074;2023-02-24T08:37:00;7.30;99.90
21508;DHT22;10915;54.352;9.074;2023-02-24T08:39:26;7.50;99.90
21508;DHT22;10915;54.352;9.074;2023-02-24T08:41:56;7.70;99.90
21508;DHT22;10915;54.352;9.074;2023-02-24T08:44:21;7.70;99.90
21508;DHT22;10915;54.352;9.074;2023-02-24T08:46:47;7.80;99.90
21508;DHT22;10915;54.352;9.074;2023-02-24T08:49:15;7.90;99.90
21508;DHT22;10915;54.352;9.074;2023-02-24T08:51:48;7.90;99.90
21508;DHT22;10915;54.352;9.074;2023-02-24T08:54:23;8.00;99.90
21508;DHT22;10915;54.352;9.074;2023-02-24T08:56:53;8.00;99.90
21508;DHT22;10915;54.352;9.074;2023-02-24T08:59:26;8.10;99.90
21508;DHT22;10915;54.352;9.074;2023-02-24T09:02:16;8.20;99.90
21508;DHT22;10915;54.352;9.074;2023-02-24T09:04:44;8.20;99.90
21508;DHT22;10915;54.352;9.074;2023-02-24T09:07:34;8.20;99.90
21508;DHT22;10915;54.352;9.074;2023-02-24T09:10:01;8.40;99.90
21508;DHT22;10915;54.352;9.074;2023-02-24T09:12:28;8.50;99.90
21508;DHT22;10915;54.352;9.074;2023-02-24T09:15:00;8.50;99.90
21508;DHT22;10915;54.352;9.074;2023-02-24T09:17:30;8.60;99.90
21508;DHT22;10915;54.352;9.074;2023-02-24T09:20:25;8.70;99.90
21508;DHT22;10915;54.352;9.074;2023-02-24T09:23:12;8.90;99.90
21508;DHT22;10915;54.352;9.074;2023-02-24T09:25:44;8.90;99.90
21508;DHT22;10915;54.352;9.074;2023-02-24T09:28:24;8.90;99.90
21508;DHT22;10915;54.352;9.074;2023-02-24T09:30:53;8.80;99.90
21508;DHT22;10915;54.352;9.074;2023-02-24T09:33:37;8.80;99.90
21508;DHT22;10915;54.352;9.074;2023-02-24T09:36:07;8.80;99.90
21508;DHT22;10915;54.352;9.074;2023-02-24T09:38:52;8.80;99.90
21508;DHT22;10915;54.352;9.074;2023-02-24T09:44:41;8.80;99.90
21508;DHT22;10915;54.352;9.074;2023-02-24T09:50:25;8.70;99.90
21508;DHT22;10915;54.352;9.074;2023-02-24T09:52:57;8.60;99.90
21508;DHT22;10915;54.352;9.074;2023-02-24T09:58:37;8.40;99.90
21508;DHT22;10915;54.352;9.074;2023-02-24T10:07:03;8.60;99.90
21508;DHT22;10915;54.352;9.074;2023-02-24T10:12:23;8.60;99.90
21508;DHT22;10915;54.352;9.074;2023-02-24T10:14:59;8.60;99.90
21508;DHT22;10915;54.352;9.074;2023-02-24T10:18:26;8.70;99.90
21508;DHT22;10915;54.352;9.074;2023-02-24T10:21:03;8.70;99.90
21508;DHT22;10915;54.352;9.074;2023-02-24T10:24:03;8.80;99.90
21508;DHT22;10915;54.352;9.074;2023-02-24T10:26:44;8.90;99.90
21508;DHT22;10915;54.352;9.074;2023-02-24T10:32:17;8.90;99.90
21508;DHT22;10915;54.352;9.074;2023-02-24T10:34:51;8.90;99.90
21508;DHT22;10915;54.352;9.074;2023-02-24T10:37:20;8.80;99.90
21508;DHT22;10915;54.352;9.074;2023-02-24T10:39:48;8.70;99.90
21508;DHT22;10915;54.352;9.074;2023-02-24T10:42:28;8.80;99.90
21508;DHT22;10915;54.352;9.074;2023-02-24T10:45:23;8.80;99.90
21508;DHT22;10915;54.352;9.074;2023-02-24T10:47:55;8.90;99.90
21508;DHT22;10915;54.352;9.074;2023-02-24T10:50:28;8.90;99.90
21508;DHT22;10915;54.352;9.074;2023-02-24T10:53:09;9.00;99.90
21508;DHT22;10915;54.352;9.074;2023-02-24T10:55:43;9.10;99.90
21508;DHT22;10915;54.352;9.074;2023-02-24T10:58:29;9.10;99.90
21508;DHT22;10915;54.352;9.074;2023-02-24T11:01:26;9.10;99.90
21508;DHT22;10915;54.352;9.074;2023-02-24T11:04:13;9.10;99.90
21508;DHT22;10915;54.352;9.074;2023-02-24T11:07:09;9.20;99.90
21508;DHT22;10915;54.352;9.074;2023-02-24T11:09:37;9.40;99.90
21508;DHT22;10915;54.352;9.074;2023-02-24T11:18:02;9.40;99.90
21508;DHT22;10915;54.352;9.074;2023-02-24T11:23:02;9.30;99.90
21508;DHT22;10915;54.352;9.074;2023-02-24T11:25:37;9.40;99.90
21508;DHT22;10915;54.352;9.074;2023-02-24T11:36:39;9.20;99.90
21508;DHT22;10915;54.352;9.074;2023-02-24T11:41:48;9.20;99.90
21508;DHT22;10915;54.352;9.074;2023-02-24T11:46:51;9.10;99.90
21508;DHT22;10915;54.352;9.074;2023-02-24T11:49:35;8.90;99.90
21508;DHT22;10915;54.352;9.074;2023-02-24T11:52:03;8.70;99.90
21508;DHT22;10915;54.352;9.074;2023-02-24T11:54:39;8.60;99.90
21508;DHT22;10915;54.352;9.074;2023-02-24T11:57:13;8.50;99.90
21508;DHT22;10915;54.352;9.074;2023-02-24T12:00:04;8.40;99.90
21508;DHT22;10915;54.352;9.074;2023-02-24T12:02:46;8.40;99.90
21508;DHT22;10915;54.352;9.074;2023-02-24T12:05:24;8.40;99.90
21508;DHT22;10915;54.352;9.074;2023-02-24T12:08:00;8.40;99.90
21508;DHT22;10915;54.352;9.074;2023-02-24T12:10:33;8.40;99.90
21508;DHT22;10915;54.352;9.074;2023-02-24T12:15:55;8.50;99.90
21508;DHT22;10915;54.352;9.074;2023-02-24T12:18:33;8.50;99.90
21508;DHT22;10915;54.352;9.074;2023-02-24T12:21:06;8.60;99.90
21508;DHT22;10915;54.352;9.074;2023-02-24T12:23:32;8.50;99.90
21508;DHT22;10915;54.352;9.074;2023-02-24T12:31:31;8.60;99.90
21508;DHT22;10915;54.352;9.074;2023-02-24T12:34:19;8.70;99.90
21508;DHT22;10915;54.352;9.074;2023-02-24T12:37:31;8.80;99.90
21508;DHT22;10915;54.352;9.074;2023-02-24T12:40:34;8.70;99.90
21508;DHT22;10915;54.352;9.074;2023-02-24T12:42:58;8.90;99.90
21508;DHT22;10915;54.352;9.074;2023-02-24T12:45:47;9.00;99.90
21508;DHT22;10915;54.352;9.074;2023-02-24T12:51:18;9.10;99.90
21508;DHT22;10915;54.352;9.074;2023-02-24T12:53:58;9.00;99.90
21508;DHT22;10915;54.352;9.074;2023-02-24T12:59:37;8.90;99.90
21508;DHT22;10915;54.352;9.074;2023-02-24T13:05:30;8.70;99.90
21508;DHT22;10915;54.352;9.074;2023-02-24T13:11:35;8.50;99.90
21508;DHT22;10915;54.352;9.074;2023-02-24T13:13:47;8.50;99.90
21508;DHT22;10915;54.352;9.074;2023-02-24T13:16:31;8.50;99.90
21508;DHT22;10915;54.352;9.074;2023-02-24T13:24:53;8.70;99.90
21508;DHT22;10915;54.352;9.074;2023-02-24T13:27:23;8.70;99.90
21508;DHT22;10915;54.352;9.074;2023-02-24T13:29:57;8.70;99.90
21508;DHT22;10915;54.352;9.074;2023-02-24T13:32:39;8.70;99.90
21508;DHT22;10915;54.352;9.074;2023-02-24T13:37:44;8.40;99.90
21508;DHT22;10915;54.352;9.074;2023-02-24T13:57:23;8.50;99.90
21508;DHT22;10915;54.352;9.074;2023-02-24T14:04:35;8.60;99.90
21508;DHT22;10915;54.352;9.074;2023-02-24T14:07:09;8.60;99.90
21508;DHT22;10915;54.352;9.074;2023-02-24T14:09:42;8.50;99.90
21508;DHT22;10915;54.352;9.074;2023-02-24T14:12:14;8.50;99.90
21508;DHT22;10915;54.352;9.074;2023-02-24T14:14:42;8.40;99.90
21508;DHT22;10915;54.352;9.074;2023-02-24T14:19:49;8.30;99.90
21508;DHT22;10915;54.352;9.074;2023-02-24T14:22:18;8.30;99.90
21508;DHT22;10915;54.352;9.074;2023-02-24T14:24:45;8.20;99.90
21508;DHT22;10915;54.352;9.074;2023-02-24T14:27:24;8.20;99.90
21508;DHT22;10915;54.352;9.074;2023-02-24T14:29:51;8.20;99.90
21508;DHT22;10915;54.352;9.074;2023-02-24T14:32:25;8.20;99.90
21508;DHT22;10915;54.352;9.074;2023-02-24T14:34:52;8.30;99.90
21508;DHT22;10915;54.352;9.074;2023-02-24T14:37:24;8.30;99.90
21508;DHT22;10915;54.352;9.074;2023-02-24T14:39:58;8.40;99.90
21508;DHT22;10915;54.352;9.074;2023-02-24T14:42:26;8.40;99.90
21508;DHT22;10915;54.352;9.074;2023-02-24T14:44:54;8.40;99.90
21508;DHT22;10915;54.352;9.074;2023-02-24T14:47:22;8.30;99.90
21508;DHT22;10915;54.352;9.074;2023-02-24T14:52:31;8.40;99.90
21508;DHT22;10915;54.352;9.074;2023-02-24T14:55:21;8.40;99.90
21508;DHT22;10915;54.352;9.074;2023-02-24T14:58:10;8.40;99.90
21508;DHT22;10915;54.352;9.074;2023-02-24T15:03:44;8.30;99.90
21508;DHT22;10915;54.352;9.074;2023-02-24T15:06:31;8.30;99.90
21508;DHT22;10915;54.352;9.074;2023-02-24T15:09:04;8.30;99.90
21508;DHT22;10915;54.352;9.074;2023-02-24T15:11:32;8.30;99.90
21508;DHT22;10915;54.352;9.074;2023-02-24T15:14:06;8.20;99.90
21508;DHT22;10915;54.352;9.074;2023-02-24T15:16:44;8.20;99.90
21508;DHT22;10915;54.352;9.074;2023-02-24T15:19:37;8.20;99.90
21508;DHT22;10915;54.352;9.074;2023-02-24T15:24:46;8.10;99.90
21508;DHT22;10915;54.352;9.074;2023-02-24T15:29:43;8.00;99.90
21508;DHT22;10915;54.352;9.074;2023-02-24T15:32:18;8.00;99.90
21508;DHT22;10915;54.352;9.074;2023-02-24T15:34:46;7.90;99.90
21508;DHT22;10915;54.352;9.074;2023-02-24T15:37:21;7.80;99.90
21508;DHT22;10915;54.352;9.074;2023-02-24T15:39:49;7.70;99.90
21508;DHT22;10915;54.352;9.074;2023-02-24T15:44:55;7.60;99.90
21508;DHT22;10915;54.352;9.074;2023-02-24T15:47:28;7.60;99.90
21508;DHT22;10915;54.352;9.074;2023-02-24T15:49:54;7.50;99.90
21508;DHT22;10915;54.352;9.074;2023-02-24T15:52:27;7.50;99.90
21508;DHT22;10915;54.352;9.074;2023-02-24T15:54:55;7.50;99.90
21508;DHT22;10915;54.352;9.074;2023-02-24T15:57:23;7.50;99.90
21508;DHT22;10915;54.352;9.074;2023-02-24T15:59:50;7.50;99.90
21508;DHT22;10915;54.352;9.074;2023-02-24T16:02:21;7.40;99.90
21508;DHT22;10915;54.352;9.074;2023-02-24T16:04:48;7.40;99.90
21508;DHT22;10915;54.352;9.074;2023-02-24T16:09:49;7.30;99.90
21508;DHT22;10915;54.352;9.074;2023-02-24T16:12:26;7.30;99.90
21508;DHT22;10915;54.352;9.074;2023-02-24T16:15:00;7.20;99.90
21508;DHT22;10915;54.352;9.074;2023-02-24T16:17:37;7.10;99.90
21508;DHT22;10915;54.352;9.074;2023-02-24T16:20:15;7.10;99.90
21508;DHT22;10915;54.352;9.074;2023-02-24T16:22:41;7.00;99.90
21508;DHT22;10915;54.352;9.074;2023-02-24T16:25:08;6.90;99.90
21508;DHT22;10915;54.352;9.074;2023-02-24T16:27:35;6.90;99.90
21508;DHT22;10915;54.352;9.074;2023-02-24T16:30:00;6.80;99.90
21508;DHT22;10915;54.352;9.074;2023-02-24T16:32:26;6.80;99.90
21508;DHT22;10915;54.352;9.074;2023-02-24T16:34:53;6.70;99.90
21508;DHT22;10915;54.352;9.074;2023-02-24T16:37:27;6.70;99.90
21508;DHT22;10915;54.352;9.074;2023-02-24T16:39:53;6.60;99.90
21508;DHT22;10915;54.352;9.074;2023-02-24T16:42:19;6.60;99.90
21508;DHT22;10915;54.352;9.074;2023-02-24T16:44:47;6.50;99.90
21508;DHT22;10915;54.352;9.074;2023-02-24T16:47:18;6.50;99.90
21508;DHT22;10915;54.352;9.074;2023-02-24T16:49:44;6.50;99.90
21508;DHT22;10915;54.352;9.074;2023-02-24T16:52:11;6.40;99.90
21508;DHT22;10915;54.352;9.074;2023-02-24T16:54:37;6.40;99.90
21508;DHT22;10915;54.352;9.074;2023-02-24T16:57:03;6.40;99.90
21508;DHT22;10915;54.352;9.074;2023-02-24T16:59:28;6.40;99.90
21508;DHT22;10915;54.352;9.074;2023-02-24T17:01:54;6.40;99.90
21508;DHT22;10915;54.352;9.074;2023-02-24T17:04:21;6.30;99.90
21508;DHT22;10915;54.352;9.074;2023-02-24T17:06:49;6.30;99.90
21508;DHT22;10915;54.352;9.074;2023-02-24T17:09:15;6.20;99.90
21508;DHT22;10915;54.352;9.074;2023-02-24T17:11:42;6.20;99.90
21508;DHT22;10915;54.352;9.074;2023-02-24T17:14:16;6.20;99.90
21508;DHT22;10915;54.352;9.074;2023-02-24T17:16:42;6.20;99.90
21508;DHT22;10915;54.352;9.074;2023-02-24T17:19:08;6.20;99.90
21508;DHT22;10915;54.352;9.074;2023-02-24T17:21:34;6.20;99.90
21508;DHT22;10915;54.352;9.074;2023-02-24T17:24:00;6.10;99.90
21508;DHT22;10915;54.352;9.074;2023-02-24T17:26:26;6.20;99.90
21508;DHT22;10915;54.352;9.074;2023-02-24T17:28:51;6.20;99.90
21508;DHT22;10915;54.352;9.074;2023-02-24T17:31:17;6.20;99.90
21508;DHT22;10915;54.352;9.074;2023-02-24T17:33:43;6.10;99.90
21508;DHT22;10915;54.352;9.074;2023-02-24T17:36:09;6.10;99.90
21508;DHT22;10915;54.352;9.074;2023-02-24T17:38:34;6.10;99.90
21508;DHT22;10915;54.352;9.074;2023-02-24T17:41:00;6.10;99.90
21508;DHT22;10915;54.352;9.074;2023-02-24T17:43:27;6.10;99.90
21508;DHT22;10915;54.352;9.074;2023-02-24T17:45:53;6.10;99.90
21508;DHT22;10915;54.352;9.074;2023-02-24T17:48:20;6.10;99.90
21508;DHT22;10915;54.352;9.074;2023-02-24T17:50:47;6.10;99.90
21508;DHT22;10915;54.352;9.074;2023-02-24T17:53:13;6.10;99.90
21508;DHT22;10915;54.352;9.074;2023-02-24T17:55:39;6.10;99.90
21508;DHT22;10915;54.352;9.074;2023-02-24T17:58:06;6.00;99.90
21508;DHT22;10915;54.352;9.074;2023-02-24T18:00:32;6.00;99.90
21508;DHT22;10915;54.352;9.074;2023-02-24T18:02:57;6.00;99.90
21508;DHT22;10915;54.352;9.074;2023-02-24T18:05:23;6.00;99.90
21508;DHT22;10915;54.352;9.074;2023-02-24T18:07:49;5.90;99.90
21508;DHT22;10915;54.352;9.074;2023-02-24T18:10:15;6.00;99.90
21508;DHT22;10915;54.352;9.074;2023-02-24T18:12:41;5.90;99.90
21508;DHT22;10915;54.352;9.074;2023-02-24T18:15:07;5.90;99.90
21508;DHT22;10915;54.352;9.074;2023-02-24T18:17:33;5.90;99.90
21508;DHT22;10915;54.352;9.074;2023-02-24T18:20:00;5.90;99.90
21508;DHT22;10915;54.352;9.074;2023-02-24T18:22:25;5.90;99.90
21508;DHT22;10915;54.352;9.074;2023-02-24T18:24:51;5.90;99.90
21508;DHT22;10915;54.352;9.074;2023-02-24T18:27:17;5.90;99.90
21508;DHT22;10915;54.352;9.074;2023-02-24T18:29:43;5.90;99.90
21508;DHT22;10915;54.352;9.074;2023-02-24T18:32:09;5.90;99.90
21508;DHT22;10915;54.352;9.074;2023-02-24T18:34:35;5.90;99.90
21508;DHT22;10915;54.352;9.074;2023-02-24T18:37:01;6.00;99.90
21508;DHT22;10915;54.352;9.074;2023-02-24T18:39:27;5.90;99.90
21508;DHT22;10915;54.352;9.074;2023-02-24T18:41:54;6.00;99.90
21508;DHT22;10915;54.352;9.074;2023-02-24T18:44:20;5.90;99.90
21508;DHT22;10915;54.352;9.074;2023-02-24T18:46:46;5.90;99.90
21508;DHT22;10915;54.352;9.074;2023-02-24T18:49:11;5.90;99.90
21508;DHT22;10915;54.352;9.074;2023-02-24T18:51:37;5.90;99.90
21508;DHT22;10915;54.352;9.074;2023-02-24T18:54:04;5.90;99.90